createdAt,value
2022-11-14T00:00:53.796Z,95594
2022-11-14T00:02:03.470Z,95590
2022-11-14T00:03:11.327Z,95594
2022-11-14T00:04:23.326Z,95592
2022-11-14T00:05:31.597Z,95592
2022-11-14T00:06:41.277Z,95587
2022-11-14T00:07:50.994Z,95584
2022-11-14T00:09:00.670Z,95584
2022-11-14T00:10:09.374Z,95584
2022-11-14T00:11:19.113Z,95580
2022-11-14T00:12:28.916Z,95579
2022-11-14T00:13:38.513Z,95573
2022-11-14T00:14:47.159Z,95569
2022-11-14T00:15:55.873Z,95566
2022-11-14T00:17:04.661Z,95561
2022-11-14T00:18:13.335Z,95563
2022-11-14T00:19:23.080Z,95561
2022-11-14T00:20:31.761Z,95559
2022-11-14T00:21:40.449Z,95558
2022-11-14T00:22:50.147Z,95559
2022-11-14T00:23:58.832Z,95559
2022-11-14T00:25:08.520Z,95562
2022-11-14T00:26:17.193Z,95563
2022-11-14T00:27:25.886Z,95564
2022-11-14T00:28:35.709Z,95562
2022-11-14T00:29:44.283Z,95565
2022-11-14T00:30:52.953Z,95565
2022-11-14T00:32:02.639Z,95567
2022-11-14T00:33:13.644Z,95572
2022-11-14T00:34:20.988Z,95570
2022-11-14T00:35:29.655Z,95572
2022-11-14T00:36:38.314Z,95570
2022-11-14T00:37:47.981Z,95569
2022-11-14T00:38:56.661Z,95565
2022-11-14T00:40:06.331Z,95571
2022-11-14T00:41:16.063Z,95572
2022-11-14T00:42:23.723Z,95577
2022-11-14T00:43:33.406Z,95582
2022-11-14T00:44:43.233Z,95582
2022-11-14T00:45:52.798Z,95588
2022-11-14T00:47:02.506Z,95592
2022-11-14T00:48:10.170Z,95587
2022-11-14T00:49:18.837Z,95586
2022-11-14T00:50:28.525Z,95587
2022-11-14T00:51:38.195Z,95583
2022-11-14T00:52:47.869Z,95582
2022-11-14T00:53:57.537Z,95579
2022-11-14T00:55:07.201Z,95578
2022-11-14T00:56:16.870Z,95565
2022-11-14T00:57:24.556Z,95556
2022-11-14T00:58:34.227Z,95560
2022-11-14T00:59:43.976Z,95565
2022-11-14T01:00:51.784Z,95560
2022-11-14T01:01:59.309Z,95562
2022-11-14T01:03:08.008Z,95556
2022-11-14T01:04:17.690Z,95556
2022-11-14T01:05:27.349Z,95559
2022-11-14T01:06:36.035Z,95556
2022-11-14T01:07:45.709Z,95563
2022-11-14T01:08:55.603Z,95563
2022-11-14T01:10:03.203Z,95563
2022-11-14T01:11:11.870Z,95561
2022-11-14T01:12:21.545Z,95562
2022-11-14T01:13:30.201Z,95569
2022-11-14T01:14:39.896Z,95568
2022-11-14T01:15:47.571Z,95572
2022-11-14T01:16:56.365Z,95575
2022-11-14T01:18:05.958Z,95580
2022-11-14T01:19:13.629Z,95583
2022-11-14T01:20:22.430Z,95581
2022-11-14T01:21:31.111Z,95579
2022-11-14T01:22:39.760Z,95577
2022-11-14T01:23:49.439Z,95576
2022-11-14T01:24:58.149Z,95574
2022-11-14T01:26:06.853Z,95569
2022-11-14T01:27:16.528Z,95569
2022-11-14T01:28:24.203Z,95568
2022-11-14T01:29:32.881Z,95571
2022-11-14T01:30:41.545Z,95570
2022-11-14T01:31:51.239Z,95571
2022-11-14T01:33:00.046Z,95569
2022-11-14T01:34:08.636Z,95568
2022-11-14T01:35:18.307Z,95574
2022-11-14T01:36:27.986Z,95568
2022-11-14T01:37:36.695Z,95569
2022-11-14T01:38:46.359Z,95557
2022-11-14T01:39:55.036Z,95557
2022-11-14T01:41:03.763Z,95548
2022-11-14T01:42:13.445Z,95544
2022-11-14T01:43:23.126Z,95541
2022-11-14T01:44:31.813Z,95541
2022-11-14T01:45:41.475Z,95540
2022-11-14T01:46:49.174Z,95539
2022-11-14T01:47:58.861Z,95541
2022-11-14T01:49:07.718Z,95541
2022-11-14T01:50:17.361Z,95533
2022-11-14T01:51:27.104Z,95532
2022-11-14T01:52:34.783Z,95531
2022-11-14T01:53:43.467Z,95533
2022-11-14T01:54:53.187Z,95533
2022-11-14T01:56:02.865Z,95538
2022-11-14T01:57:11.553Z,95534
2022-11-14T01:58:21.230Z,95539
2022-11-14T01:59:29.904Z,95539
2022-11-14T02:00:39.612Z,95544
2022-11-14T02:01:48.494Z,95541
2022-11-14T02:02:57.148Z,95541
2022-11-14T02:04:08.129Z,95537
2022-11-14T02:05:17.605Z,95535
2022-11-14T02:06:27.181Z,95531
2022-11-14T02:07:35.951Z,95531
2022-11-14T02:08:45.541Z,95535
2022-11-14T02:09:54.207Z,95532
2022-11-14T02:11:02.884Z,95531
2022-11-14T02:12:12.602Z,95532
2022-11-14T02:13:20.270Z,95535
2022-11-14T02:14:28.937Z,95536
2022-11-14T02:15:38.614Z,95532
2022-11-14T02:17:01.012Z,95531
2022-11-14T02:17:55.919Z,95523
2022-11-14T02:19:04.589Z,95528
2022-11-14T02:20:14.274Z,95529
2022-11-14T02:21:24.083Z,95525
2022-11-14T02:22:33.647Z,95532
2022-11-14T02:23:43.377Z,95535
2022-11-14T02:24:53.071Z,95541
2022-11-14T02:26:01.745Z,95541
2022-11-14T02:27:11.411Z,95538
2022-11-14T02:28:20.133Z,95535
2022-11-14T02:29:29.869Z,95537
2022-11-14T02:30:39.641Z,95537
2022-11-14T02:31:49.256Z,95534
2022-11-14T02:33:14.238Z,95533
2022-11-14T02:34:09.587Z,95540
2022-11-14T02:35:17.259Z,95543
2022-11-14T02:36:27.051Z,95551
2022-11-14T02:37:36.612Z,95554
2022-11-14T02:38:46.307Z,95551
2022-11-14T02:39:55.984Z,95550
2022-11-14T02:41:04.694Z,95538
2022-11-14T02:42:13.353Z,95529
2022-11-14T02:43:23.050Z,95527
2022-11-14T02:44:30.786Z,95518
2022-11-14T02:45:38.466Z,95520
2022-11-14T02:46:47.170Z,95525
2022-11-14T02:47:55.850Z,95530
2022-11-14T02:49:05.541Z,95520
2022-11-14T02:50:14.220Z,95515
2022-11-14T02:51:22.890Z,95516
2022-11-14T02:52:32.716Z,95506
2022-11-14T02:53:41.287Z,95511
2022-11-14T02:54:54.412Z,95502
2022-11-14T02:56:00.630Z,95499
2022-11-14T02:57:09.289Z,95495
2022-11-14T02:58:17.972Z,95488
2022-11-14T02:59:26.637Z,95488
2022-11-14T03:00:38.501Z,95487
2022-11-14T03:01:47.082Z,95489
2022-11-14T03:02:53.666Z,95490
2022-11-14T03:04:02.381Z,95489
2022-11-14T03:05:12.069Z,95487
2022-11-14T03:06:21.742Z,95488
2022-11-14T03:07:31.497Z,95483
2022-11-14T03:08:39.224Z,95487
2022-11-14T03:09:47.795Z,95487
2022-11-14T03:10:57.538Z,95490
2022-11-14T03:12:06.224Z,95492
2022-11-14T03:13:14.901Z,95489
2022-11-14T03:14:23.578Z,95490
2022-11-14T03:15:32.283Z,95493
2022-11-14T03:16:41.989Z,95494
2022-11-14T03:17:50.659Z,95494
2022-11-14T03:18:59.325Z,95492
2022-11-14T03:20:09.014Z,95491
2022-11-14T03:21:16.706Z,95487
2022-11-14T03:22:25.383Z,95488
2022-11-14T03:23:34.053Z,95489
2022-11-14T03:24:42.847Z,95481
2022-11-14T03:25:52.409Z,95486
2022-11-14T03:27:01.127Z,95487
2022-11-14T03:28:09.808Z,95488
2022-11-14T03:29:19.458Z,95489
2022-11-14T03:30:27.137Z,95488
2022-11-14T03:31:36.852Z,95492
2022-11-14T03:32:45.545Z,95494
2022-11-14T03:33:54.355Z,95492
2022-11-14T03:35:04.044Z,95494
2022-11-14T03:36:12.722Z,95497
2022-11-14T03:37:21.392Z,95502
2022-11-14T03:38:31.318Z,95501
2022-11-14T03:39:38.778Z,95502
2022-11-14T03:40:48.480Z,95500
2022-11-14T03:41:58.148Z,95494
2022-11-14T03:43:07.819Z,95494
2022-11-14T03:44:17.511Z,95493
2022-11-14T03:45:27.252Z,95483
2022-11-14T03:46:37.025Z,95484
2022-11-14T03:47:46.685Z,95482
2022-11-14T03:48:55.347Z,95481
2022-11-14T03:50:04.047Z,95481
2022-11-14T03:51:13.741Z,95481
2022-11-14T03:52:22.391Z,95487
2022-11-14T03:53:32.079Z,95497
2022-11-14T03:54:41.748Z,95506
2022-11-14T03:55:51.457Z,95512
2022-11-14T03:57:01.277Z,95516
2022-11-14T03:58:10.849Z,95520
2022-11-14T03:59:19.508Z,95513
2022-11-14T04:00:29.230Z,95509
2022-11-14T04:01:37.888Z,95507
2022-11-14T04:02:47.570Z,95501
2022-11-14T04:03:57.242Z,95501
2022-11-14T04:05:05.901Z,95497
2022-11-14T04:06:15.654Z,95500
2022-11-14T04:07:25.475Z,95504
2022-11-14T04:08:35.122Z,95503
2022-11-14T04:09:43.781Z,95509
2022-11-14T04:10:53.545Z,95517
2022-11-14T04:12:02.220Z,95516
2022-11-14T04:13:12.024Z,95515
2022-11-14T04:14:21.577Z,95516
2022-11-14T04:15:31.256Z,95518
2022-11-14T04:16:39.916Z,95512
2022-11-14T04:17:49.608Z,95509
2022-11-14T04:18:57.325Z,95511
2022-11-14T04:20:07.000Z,95508
2022-11-14T04:21:16.742Z,95504
2022-11-14T04:22:25.405Z,95507
2022-11-14T04:23:35.074Z,95501
2022-11-14T04:24:42.799Z,95505
2022-11-14T04:25:51.473Z,95501
2022-11-14T04:27:01.145Z,95502
2022-11-14T04:28:08.817Z,95502
2022-11-14T04:29:17.604Z,95504
2022-11-14T04:30:30.839Z,95501
2022-11-14T04:31:37.440Z,95503
2022-11-14T04:32:47.116Z,95506
2022-11-14T04:33:56.777Z,95504
2022-11-14T04:35:06.427Z,95505
2022-11-14T04:36:16.143Z,95506
2022-11-14T04:37:24.800Z,95508
2022-11-14T04:38:33.614Z,95511
2022-11-14T04:39:42.205Z,95504
2022-11-14T04:40:50.884Z,95499
2022-11-14T04:42:00.581Z,95497
2022-11-14T04:43:08.274Z,95498
2022-11-14T04:44:17.959Z,95501
2022-11-14T04:45:26.786Z,95502
2022-11-14T04:46:35.294Z,95505
2022-11-14T04:47:44.999Z,95512
2022-11-14T04:48:54.678Z,95508
2022-11-14T04:50:03.343Z,95515
2022-11-14T04:51:13.009Z,95519
2022-11-14T04:52:21.672Z,95521
2022-11-14T04:53:30.397Z,95512
2022-11-14T04:54:40.077Z,95504
2022-11-14T04:55:48.748Z,95493
2022-11-14T04:56:57.415Z,95488
2022-11-14T04:58:07.095Z,95493
2022-11-14T04:59:19.698Z,95493
2022-11-14T05:00:25.446Z,95494
2022-11-14T05:01:34.240Z,95497
2022-11-14T05:02:42.814Z,95494
2022-11-14T05:03:52.489Z,95490
2022-11-14T05:05:01.212Z,95486
2022-11-14T05:06:10.898Z,95484
2022-11-14T05:07:19.645Z,95475
2022-11-14T05:08:28.567Z,95475
2022-11-14T05:09:37.923Z,95472
2022-11-14T05:10:47.636Z,95470
2022-11-14T05:11:56.288Z,95469
2022-11-14T05:13:05.991Z,95467
2022-11-14T05:14:13.651Z,95472
2022-11-14T05:15:23.317Z,95472
2022-11-14T05:16:32.018Z,95472
2022-11-14T05:17:41.708Z,95469
2022-11-14T05:18:51.363Z,95476
2022-11-14T05:20:00.047Z,95481
2022-11-14T05:21:08.710Z,95486
2022-11-14T05:22:18.424Z,95492
2022-11-14T05:23:26.095Z,95491
2022-11-14T05:24:34.748Z,95487
2022-11-14T05:25:43.451Z,95484
2022-11-14T05:26:52.126Z,95481
2022-11-14T05:28:01.842Z,95484
2022-11-14T05:29:10.511Z,95479
2022-11-14T05:30:20.179Z,95480
2022-11-14T05:31:29.866Z,95477
2022-11-14T05:32:38.555Z,95485
2022-11-14T05:33:48.405Z,95486
2022-11-14T05:34:58.034Z,95491
2022-11-14T05:36:07.694Z,95492
2022-11-14T05:37:17.373Z,95488
2022-11-14T05:38:26.050Z,95497
2022-11-14T05:39:34.725Z,95501
2022-11-14T05:40:44.443Z,95500
2022-11-14T05:41:53.126Z,95504
2022-11-14T05:43:00.792Z,95503
2022-11-14T05:44:09.489Z,95507
2022-11-14T05:45:18.207Z,95505
2022-11-14T05:46:27.921Z,95509
2022-11-14T05:47:36.614Z,95521
2022-11-14T05:48:46.327Z,95527
2022-11-14T05:49:56.055Z,95531
2022-11-14T05:51:05.734Z,95528
2022-11-14T05:52:14.428Z,95531
2022-11-14T05:53:23.118Z,95531
2022-11-14T05:54:31.835Z,95527
2022-11-14T05:55:41.596Z,95526
2022-11-14T05:56:49.313Z,95528
2022-11-14T05:57:59.016Z,95530
2022-11-14T05:59:08.730Z,95527
2022-11-14T06:00:16.471Z,95531
2022-11-14T06:01:26.154Z,95537
2022-11-14T06:02:34.885Z,95536
2022-11-14T06:03:43.579Z,95535
2022-11-14T06:04:53.298Z,95536
2022-11-14T06:06:02.035Z,95540
2022-11-14T06:07:14.068Z,95535
2022-11-14T06:08:22.403Z,95532
2022-11-14T06:09:31.125Z,95538
2022-11-14T06:10:40.963Z,95538
2022-11-14T06:11:49.623Z,95546
2022-11-14T06:12:58.303Z,95546
2022-11-14T06:14:10.838Z,95548
2022-11-14T06:15:15.663Z,95552
2022-11-14T06:16:25.379Z,95548
2022-11-14T06:17:33.077Z,95547
2022-11-14T06:18:42.783Z,95545
2022-11-14T06:19:52.589Z,95545
2022-11-14T06:21:02.332Z,95547
2022-11-14T06:22:12.115Z,95547
2022-11-14T06:23:24.686Z,95543
2022-11-14T06:24:30.562Z,95547
2022-11-14T06:25:39.325Z,95541
2022-11-14T06:26:49.013Z,95536
2022-11-14T06:27:57.688Z,95537
2022-11-14T06:29:07.414Z,95540
2022-11-14T06:30:16.208Z,95545
2022-11-14T06:31:24.966Z,95544
2022-11-14T06:32:34.671Z,95545
2022-11-14T06:33:44.352Z,95546
2022-11-14T06:34:54.089Z,95546
2022-11-14T06:36:02.780Z,95538
2022-11-14T06:37:12.598Z,95537
2022-11-14T06:38:22.417Z,95537
2022-11-14T06:39:32.050Z,95542
2022-11-14T06:40:40.754Z,95545
2022-11-14T06:41:49.476Z,95543
2022-11-14T06:42:58.289Z,95543
2022-11-14T06:44:08.012Z,95546
2022-11-14T06:45:15.719Z,95544
2022-11-14T06:46:24.441Z,95545
2022-11-14T06:47:34.156Z,95545
2022-11-14T06:48:42.872Z,95551
2022-11-14T06:49:51.578Z,95551
2022-11-14T06:51:00.302Z,95556
2022-11-14T06:52:08.995Z,95559
2022-11-14T06:53:18.706Z,95555
2022-11-14T06:54:27.431Z,95560
2022-11-14T06:55:36.089Z,95557
2022-11-14T06:56:45.830Z,95552
2022-11-14T06:57:53.536Z,95546
2022-11-14T06:59:02.255Z,95539
2022-11-14T07:00:11.964Z,95541
2022-11-14T07:01:21.670Z,95546
2022-11-14T07:02:31.401Z,95546
2022-11-14T07:03:40.109Z,95543
2022-11-14T07:04:48.789Z,95536
2022-11-14T07:05:58.524Z,95538
2022-11-14T07:07:07.325Z,95541
2022-11-14T07:08:20.761Z,95541
2022-11-14T07:09:25.582Z,95543
2022-11-14T07:10:35.369Z,95538
2022-11-14T07:11:45.086Z,95540
2022-11-14T07:12:52.752Z,95534
2022-11-14T07:14:02.425Z,95527
2022-11-14T07:15:11.104Z,95536
2022-11-14T07:16:19.781Z,95534
2022-11-14T07:17:31.309Z,95533
2022-11-14T07:18:39.255Z,95541
2022-11-14T07:19:47.962Z,95541
2022-11-14T07:20:57.653Z,95552
2022-11-14T07:22:05.368Z,95550
2022-11-14T07:23:14.840Z,95554
2022-11-14T07:24:24.893Z,95545
2022-11-14T07:25:32.569Z,95547
2022-11-14T07:26:42.344Z,95543
2022-11-14T07:27:50.998Z,95544
2022-11-14T07:29:02.685Z,95548
2022-11-14T07:30:10.452Z,95550
2022-11-14T07:31:19.160Z,95553
2022-11-14T07:32:27.853Z,95557
2022-11-14T07:33:37.565Z,95562
2022-11-14T07:34:45.335Z,95565
2022-11-14T07:35:55.047Z,95561
2022-11-14T07:37:04.727Z,95565
2022-11-14T07:38:13.407Z,95550
2022-11-14T07:39:23.107Z,95544
2022-11-14T07:40:32.030Z,95545
2022-11-14T07:41:40.703Z,95548
2022-11-14T07:42:50.459Z,95549
2022-11-14T07:43:59.179Z,95548
2022-11-14T07:45:07.863Z,95552
2022-11-14T07:46:16.577Z,95546
2022-11-14T07:47:26.341Z,95545
2022-11-14T07:48:36.045Z,95548
2022-11-14T07:49:43.715Z,95547
2022-11-14T07:50:52.394Z,95547
2022-11-14T07:52:02.259Z,95544
2022-11-14T07:53:09.935Z,95540
2022-11-14T07:54:19.641Z,95537
2022-11-14T07:55:28.339Z,95534
2022-11-14T07:56:37.027Z,95533
2022-11-14T07:57:49.338Z,95529
2022-11-14T07:58:56.478Z,95530
2022-11-14T08:00:06.136Z,95528
2022-11-14T08:01:14.927Z,95527
2022-11-14T08:02:22.523Z,95531
2022-11-14T08:03:32.245Z,95526
2022-11-14T08:04:41.916Z,95526
2022-11-14T08:05:50.599Z,95525
2022-11-14T08:07:00.412Z,95528
2022-11-14T08:08:09.045Z,95533
2022-11-14T08:09:18.794Z,95526
2022-11-14T08:10:29.721Z,95528
2022-11-14T08:11:36.207Z,95529
2022-11-14T08:12:45.886Z,95529
2022-11-14T08:13:56.607Z,95518
2022-11-14T08:15:06.415Z,95512
2022-11-14T08:16:16.015Z,95517
2022-11-14T08:17:25.669Z,95512
2022-11-14T08:18:35.344Z,95508
2022-11-14T08:19:44.058Z,95504
2022-11-14T08:20:53.754Z,95501
2022-11-14T08:22:03.461Z,95496
2022-11-14T08:23:11.144Z,95492
2022-11-14T08:24:19.842Z,95498
2022-11-14T08:25:28.530Z,95495
2022-11-14T08:26:37.337Z,95504
2022-11-14T08:27:47.068Z,95504
2022-11-14T08:28:54.783Z,95506
2022-11-14T08:30:04.486Z,95512
2022-11-14T08:31:14.258Z,95513
2022-11-14T08:32:23.956Z,95509
2022-11-14T08:33:32.649Z,95503
2022-11-14T08:34:42.349Z,95497
2022-11-14T08:35:51.064Z,95504
2022-11-14T08:36:59.771Z,95505
2022-11-14T08:38:08.486Z,95503
2022-11-14T08:39:17.167Z,95509
2022-11-14T08:40:26.939Z,95514
2022-11-14T08:41:35.623Z,95517
2022-11-14T08:42:44.304Z,95518
2022-11-14T08:43:54.018Z,95518
2022-11-14T08:45:03.779Z,95514
2022-11-14T08:46:13.478Z,95513
2022-11-14T08:47:21.198Z,95517
2022-11-14T08:48:30.229Z,95514
2022-11-14T08:49:39.631Z,95518
2022-11-14T08:50:49.377Z,95514
2022-11-14T08:51:58.125Z,95513
2022-11-14T08:53:08.887Z,95508
2022-11-14T08:54:17.621Z,95503
2022-11-14T08:55:27.369Z,95505
2022-11-14T08:56:35.026Z,95494
2022-11-14T08:57:49.118Z,95493
2022-11-14T08:58:54.455Z,95491
2022-11-14T09:00:02.182Z,95494
2022-11-14T09:01:10.890Z,95493
2022-11-14T09:02:19.698Z,95497
2022-11-14T09:03:28.525Z,95491
2022-11-14T09:04:38.229Z,95490
2022-11-14T09:05:45.888Z,95487
2022-11-14T09:06:55.645Z,95495
2022-11-14T09:08:05.368Z,95500
2022-11-14T09:09:14.081Z,95498
2022-11-14T09:10:22.784Z,95499
2022-11-14T09:11:32.464Z,95496
2022-11-14T09:12:41.182Z,95497
2022-11-14T09:13:50.904Z,95500
2022-11-14T09:14:58.595Z,95501
2022-11-14T09:16:08.331Z,95498
2022-11-14T09:17:18.071Z,95496
2022-11-14T09:18:28.068Z,95494
2022-11-14T09:19:37.615Z,95492
2022-11-14T09:20:47.271Z,95492
2022-11-14T09:21:55.948Z,95494
2022-11-14T09:23:05.665Z,95496
2022-11-14T09:24:14.393Z,95493
2022-11-14T09:25:24.098Z,95496
2022-11-14T09:26:33.798Z,95489
2022-11-14T09:27:42.543Z,95492
2022-11-14T09:28:52.243Z,95495
2022-11-14T09:30:01.075Z,95496
2022-11-14T09:31:10.892Z,95503
2022-11-14T09:32:19.608Z,95505
2022-11-14T09:33:27.508Z,95503
2022-11-14T09:34:36.053Z,95506
2022-11-14T09:35:45.794Z,95503
2022-11-14T09:36:55.501Z,95500
2022-11-14T09:38:04.158Z,95502
2022-11-14T09:39:12.847Z,95510
2022-11-14T09:40:21.507Z,95502
2022-11-14T09:41:31.325Z,95499
2022-11-14T09:42:40.005Z,95510
2022-11-14T09:43:49.690Z,95508
2022-11-14T09:44:59.394Z,95506
2022-11-14T09:46:08.092Z,95509
2022-11-14T09:47:20.651Z,95514
2022-11-14T09:48:27.845Z,95521
2022-11-14T09:49:36.427Z,95520
2022-11-14T09:50:46.152Z,95526
2022-11-14T09:51:54.902Z,95526
2022-11-14T09:53:03.548Z,95526
2022-11-14T09:54:14.239Z,95529
2022-11-14T09:55:21.917Z,95521
2022-11-14T09:56:31.629Z,95522
2022-11-14T09:57:40.325Z,95515
2022-11-14T09:58:49.021Z,95520
2022-11-14T09:59:58.709Z,95519
2022-11-14T10:01:09.475Z,95510
2022-11-14T10:02:17.168Z,95509
2022-11-14T10:03:25.765Z,95513
2022-11-14T10:04:34.476Z,95516
2022-11-14T10:05:44.162Z,95518
2022-11-14T10:06:50.878Z,95523
2022-11-14T10:08:00.563Z,95526
2022-11-14T10:09:10.229Z,95526
2022-11-14T10:10:19.964Z,95531
2022-11-14T10:11:29.607Z,95532
2022-11-14T10:12:37.276Z,95532
2022-11-14T10:13:45.997Z,95530
2022-11-14T10:14:55.670Z,95536
2022-11-14T10:16:05.415Z,95532
2022-11-14T10:17:14.113Z,95527
2022-11-14T10:18:22.798Z,95526
2022-11-14T10:19:31.476Z,95531
2022-11-14T10:20:42.132Z,95525
2022-11-14T10:21:50.810Z,95523
2022-11-14T10:23:01.663Z,95518
2022-11-14T10:24:10.212Z,95518
2022-11-14T10:25:19.869Z,95516
2022-11-14T10:26:28.537Z,95512
2022-11-14T10:27:37.369Z,95516
2022-11-14T10:28:46.073Z,95512
2022-11-14T10:29:55.781Z,95509
2022-11-14T10:31:03.447Z,95512
2022-11-14T10:32:12.112Z,95513
2022-11-14T10:33:21.947Z,95509
2022-11-14T10:34:30.638Z,95513
2022-11-14T10:35:40.378Z,95512
2022-11-14T10:36:50.048Z,95522
2022-11-14T10:37:58.741Z,95526
2022-11-14T10:39:08.477Z,95516
2022-11-14T10:40:18.416Z,95521
2022-11-14T10:41:50.293Z,95522
2022-11-14T10:42:38.636Z,95517
2022-11-14T10:43:46.318Z,95521
2022-11-14T10:44:55.022Z,95523
2022-11-14T10:46:04.707Z,95523
2022-11-14T10:47:13.386Z,95523
2022-11-14T10:48:23.100Z,95522
2022-11-14T10:49:29.784Z,95519
2022-11-14T10:50:38.713Z,95518
2022-11-14T10:51:48.322Z,95522
2022-11-14T10:52:55.999Z,95524
2022-11-14T10:54:04.678Z,95528
2022-11-14T10:55:13.379Z,95526
2022-11-14T10:56:24.083Z,95528
2022-11-14T10:57:33.742Z,95524
2022-11-14T10:58:48.625Z,95530
2022-11-14T10:59:52.098Z,95530
2022-11-14T11:01:02.067Z,95532
2022-11-14T11:02:09.849Z,95530
2022-11-14T11:03:18.541Z,95538
2022-11-14T11:04:28.358Z,95540
2022-11-14T11:05:36.925Z,95543
2022-11-14T11:06:46.687Z,95542
2022-11-14T11:07:54.313Z,95545
2022-11-14T11:09:04.030Z,95548
2022-11-14T11:10:13.666Z,95546
2022-11-14T11:11:22.354Z,95548
2022-11-14T11:12:32.090Z,95548
2022-11-14T11:13:41.731Z,95551
2022-11-14T11:14:51.415Z,95547
2022-11-14T11:16:01.126Z,95550
2022-11-14T11:17:08.814Z,95544
2022-11-14T11:18:17.496Z,95542
2022-11-14T11:19:27.204Z,95550
2022-11-14T11:20:35.910Z,95551
2022-11-14T11:21:45.690Z,95554
2022-11-14T11:22:54.317Z,95554
2022-11-14T11:24:04.032Z,95558
2022-11-14T11:25:13.689Z,95556
2022-11-14T11:26:22.360Z,95555
2022-11-14T11:27:32.026Z,95557
2022-11-14T11:28:41.751Z,95560
2022-11-14T11:29:51.416Z,95563
2022-11-14T11:31:00.139Z,95560
2022-11-14T11:32:08.816Z,95560
2022-11-14T11:33:17.494Z,95559
2022-11-14T11:34:27.222Z,95562
2022-11-14T11:35:35.860Z,95553
2022-11-14T11:36:44.673Z,95556
2022-11-14T11:37:55.425Z,95557
2022-11-14T11:39:03.029Z,95561
2022-11-14T11:40:11.706Z,95555
2022-11-14T11:41:52.964Z,95556
2022-11-14T11:42:53.746Z,95561
2022-11-14T11:43:42.732Z,95565
2022-11-14T11:44:50.422Z,95566
2022-11-14T11:45:59.185Z,95573
2022-11-14T11:47:08.875Z,95573
2022-11-14T11:48:17.568Z,95569
2022-11-14T11:49:26.249Z,95567
2022-11-14T11:50:34.951Z,95567
2022-11-14T11:51:43.628Z,95565
2022-11-14T11:52:53.327Z,95563
2022-11-14T11:54:01.155Z,95573
2022-11-14T11:55:10.822Z,95583
2022-11-14T11:56:20.524Z,95587
2022-11-14T11:57:28.205Z,95585
2022-11-14T11:58:37.889Z,95587
2022-11-14T11:59:46.619Z,95589
2022-11-14T12:00:55.355Z,95591
2022-11-14T12:02:05.066Z,95585
2022-11-14T12:03:20.092Z,95582
2022-11-14T12:04:24.392Z,95582
2022-11-14T12:05:32.204Z,95580
2022-11-14T12:06:40.875Z,95585
2022-11-14T12:07:50.567Z,95581
2022-11-14T12:09:00.294Z,95585
2022-11-14T12:10:11.008Z,95581
2022-11-14T12:11:19.805Z,95578
2022-11-14T12:12:28.472Z,95584
2022-11-14T12:13:37.148Z,95581
2022-11-14T12:14:44.847Z,95580
2022-11-14T12:15:53.534Z,95585
2022-11-14T12:17:03.249Z,95584
2022-11-14T12:18:11.909Z,95586
2022-11-14T12:19:20.616Z,95583
2022-11-14T12:20:29.328Z,95592
2022-11-14T12:21:38.012Z,95589
2022-11-14T12:22:47.732Z,95590
2022-11-14T12:23:57.384Z,95587
2022-11-14T12:25:06.059Z,95584
2022-11-14T12:26:15.755Z,95591
2022-11-14T12:27:24.515Z,95595
2022-11-14T12:28:34.168Z,95597
2022-11-14T12:29:42.863Z,95599
2022-11-14T12:30:51.601Z,95605
2022-11-14T12:32:01.273Z,95600
2022-11-14T12:33:10.981Z,95598
2022-11-14T12:34:20.693Z,95599
2022-11-14T12:35:30.384Z,95597
2022-11-14T12:36:38.010Z,95600
2022-11-14T12:37:49.044Z,95605
2022-11-14T12:38:57.389Z,95607
2022-11-14T12:40:06.205Z,95606
2022-11-14T12:41:14.857Z,95609
2022-11-14T12:42:23.522Z,95607
2022-11-14T12:43:36.264Z,95608
2022-11-14T12:44:42.910Z,95606
2022-11-14T12:45:52.618Z,95605
2022-11-14T12:47:01.293Z,95610
2022-11-14T12:48:11.048Z,95611
2022-11-14T12:49:20.760Z,95612
2022-11-14T12:50:31.506Z,95611
2022-11-14T12:51:41.121Z,95615
2022-11-14T12:52:49.811Z,95617
2022-11-14T12:53:59.487Z,95618
2022-11-14T12:55:07.137Z,95613
2022-11-14T12:56:15.880Z,95617
2022-11-14T12:57:25.690Z,95613
2022-11-14T12:58:35.381Z,95620
2022-11-14T12:59:45.070Z,95619
2022-11-14T13:00:52.804Z,95617
2022-11-14T13:02:01.431Z,95621
2022-11-14T13:03:11.110Z,95618
2022-11-14T13:04:18.854Z,95618
2022-11-14T13:05:28.536Z,95612
2022-11-14T13:06:38.257Z,95620
2022-11-14T13:07:46.939Z,95620
2022-11-14T13:08:56.653Z,95623
2022-11-14T13:10:06.338Z,95624
2022-11-14T13:11:15.021Z,95622
2022-11-14T13:12:24.685Z,95624
2022-11-14T13:13:33.760Z,95619
2022-11-14T13:14:43.052Z,95625
2022-11-14T13:15:51.706Z,95619
2022-11-14T13:17:00.448Z,95617
2022-11-14T13:18:10.101Z,95616
2022-11-14T13:19:19.814Z,95613
2022-11-14T13:20:28.509Z,95610
2022-11-14T13:21:42.422Z,95612
2022-11-14T13:22:48.923Z,95614
2022-11-14T13:23:57.603Z,95609
2022-11-14T13:25:07.351Z,95613
2022-11-14T13:26:16.155Z,95614
2022-11-14T13:27:39.438Z,95615
2022-11-14T13:28:36.523Z,95614
2022-11-14T13:29:45.179Z,95612
2022-11-14T13:30:54.889Z,95607
2022-11-14T13:32:02.603Z,95606
2022-11-14T13:33:11.277Z,95610
2022-11-14T13:34:21.023Z,95614
2022-11-14T13:35:29.680Z,95611
2022-11-14T13:36:39.389Z,95616
2022-11-14T13:37:49.111Z,95612
2022-11-14T13:38:57.817Z,95615
2022-11-14T13:40:10.403Z,95613
2022-11-14T13:41:22.976Z,95612
2022-11-14T13:42:28.705Z,95614
2022-11-14T13:43:37.464Z,95611
2022-11-14T13:44:46.231Z,95603
2022-11-14T13:45:55.906Z,95605
2022-11-14T13:47:03.914Z,95602
2022-11-14T13:48:12.602Z,95609
2022-11-14T13:49:22.285Z,95605
2022-11-14T13:50:29.946Z,95605
2022-11-14T13:51:43.825Z,95604
2022-11-14T13:52:49.287Z,95607
2022-11-14T13:53:57.996Z,95605
2022-11-14T13:55:07.729Z,95607
2022-11-14T13:56:16.395Z,95602
2022-11-14T13:57:26.224Z,95604
2022-11-14T13:58:33.835Z,95604
2022-11-14T13:59:43.547Z,95608
2022-11-14T14:00:53.427Z,95605
2022-11-14T14:02:02.059Z,95601
2022-11-14T14:03:11.756Z,95604
2022-11-14T14:04:21.424Z,95600
2022-11-14T14:05:30.120Z,95596
2022-11-14T14:06:39.808Z,95596
2022-11-14T14:07:47.475Z,95594
2022-11-14T14:08:57.201Z,95595
2022-11-14T14:10:06.891Z,95598
2022-11-14T14:11:15.609Z,95608
2022-11-14T14:12:25.337Z,95600
2022-11-14T14:13:34.015Z,95609
2022-11-14T14:14:43.722Z,95600
2022-11-14T14:15:53.389Z,95602
2022-11-14T14:17:01.050Z,95601
2022-11-14T14:18:10.739Z,95602
2022-11-14T14:19:24.586Z,95599
2022-11-14T14:20:30.115Z,95598
2022-11-14T14:21:39.814Z,95603
2022-11-14T14:22:49.517Z,95597
2022-11-14T14:23:58.228Z,95598
2022-11-14T14:25:07.897Z,95603
2022-11-14T14:26:15.597Z,95605
2022-11-14T14:27:24.330Z,95598
2022-11-14T14:28:35.130Z,95599
2022-11-14T14:29:42.810Z,95606
2022-11-14T14:30:52.532Z,95605
2022-11-14T14:32:01.200Z,95608
2022-11-14T14:33:09.877Z,95607
2022-11-14T14:34:19.524Z,95606
2022-11-14T14:35:28.206Z,95607
2022-11-14T14:36:36.857Z,95606
2022-11-14T14:37:46.548Z,95606
2022-11-14T14:38:54.229Z,95602
2022-11-14T14:40:02.892Z,95604
2022-11-14T14:41:11.585Z,95597
2022-11-14T14:42:21.299Z,95604
2022-11-14T14:43:32.003Z,95608
2022-11-14T14:44:41.678Z,95604
2022-11-14T14:45:51.375Z,95600
2022-11-14T14:47:01.182Z,95605
2022-11-14T14:48:08.848Z,95602
2022-11-14T14:49:17.521Z,95599
2022-11-14T14:50:27.226Z,95605